Time;durP1;ratioP1;P1;durP2;ratioP2;P2;SDS_P1;SDS_P2;PMS_P1;PMS_P2;Temp;Humidity;BMP_temperature;BMP_pressure;BME280_temperature;BME280_humidity;BME280_pressure;Samples;Min_cycle;Max_cycle;Signal;HPM_P1;HPM_P2
2023/09/30 00:01:21;;;;;;;0.20;0.20;;;;;;;10.67;100.00;102352.75;5112842;28;20026;-43
2023/09/30 00:03:47;;;;;;;0.17;0.17;;;;;;;10.66;100.00;102350.97;5112950;28;20024;-42
2023/09/30 00:06:12;;;;;;;0.22;0.22;;;;;;;10.67;100.00;102351.03;5111833;28;20085;-44
2023/09/30 00:08:39;;;;;;;0.10;0.10;;;;;;;10.71;100.00;102362.41;5113190;28;20489;-42
2023/09/30 00:11:06;;;;;;;0.20;0.20;;;;;;;10.68;100.00;102355.41;5113127;28;20023;-41
2023/09/30 00:13:31;;;;;;;0.20;0.20;;;;;;;10.72;100.00;102353.88;5112056;28;20376;-45
2023/09/30 00:15:57;;;;;;;0.10;0.10;;;;;;;10.70;100.00;102358.97;5113115;28;20068;-44
2023/09/30 00:18:22;;;;;;;0.20;0.20;;;;;;;10.73;100.00;102365.97;5112691;28;20038;-46
2023/09/30 00:20:48;;;;;;;0.20;0.20;;;;;;;10.78;100.00;102367.09;5112422;28;20023;-43
2023/09/30 00:23:13;;;;;;;0.20;0.20;;;;;;;10.75;100.00;102360.88;5112452;28;20023;-44
2023/09/30 00:25:39;;;;;;;0.15;0.15;;;;;;;10.82;100.00;102363.88;5113067;28;20031;-44
2023/09/30 00:28:04;;;;;;;0.30;0.30;;;;;;;10.79;100.00;102368.84;5112155;28;20081;-43
2023/09/30 00:30:30;;;;;;;0.20;0.20;;;;;;;10.80;100.00;102370.63;5115764;28;20489;-42
2023/09/30 00:32:55;;;;;;;0.20;0.20;;;;;;;10.82;100.00;102356.13;5116948;28;20107;-42
2023/09/30 00:35:20;;;;;;;0.20;0.20;;;;;;;10.81;100.00;102354.34;5115550;28;20378;-44
2023/09/30 00:37:46;;;;;;;0.20;0.20;;;;;;;10.82;100.00;102362.97;5116803;28;20028;-46
2023/09/30 00:40:11;;;;;;;0.20;0.20;;;;;;;10.85;100.00;102371.75;5115652;28;20054;-41
2023/09/30 00:42:37;;;;;;;0.20;0.20;;;;;;;10.86;100.00;102381.28;5116502;28;20076;-44
2023/09/30 00:45:04;;;;;;;0.20;0.20;;;;;;;10.82;100.00;102386.19;5116741;28;20027;-42
2023/09/30 00:47:30;;;;;;;0.20;0.20;;;;;;;10.81;100.00;102382.72;5115314;28;20526;-42
2023/09/30 00:49:56;;;;;;;0.20;0.20;;;;;;;10.82;100.00;102376.78;5116603;28;20107;-43
2023/09/30 00:52:22;;;;;;;0.20;0.20;;;;;;;10.80;100.00;102380.94;5116326;28;20466;-42
2023/09/30 00:54:48;;;;;;;0.20;0.20;;;;;;;10.74;100.00;102362.56;5115636;28;20020;-44
2023/09/30 00:57:14;;;;;;;0.20;0.20;;;;;;;10.74;100.00;102359.97;5115910;28;20048;-43
2023/09/30 00:59:40;;;;;;;0.20;0.20;;;;;;;10.71;100.00;102365.88;5116306;28;20024;-42
2023/09/30 01:02:06;;;;;;;0.20;0.20;;;;;;;10.70;100.00;102371.84;5115395;28;20023;-44
2023/09/30 01:04:31;;;;;;;0.20;0.20;;;;;;;10.68;100.00;102375.16;5115907;28;20479;-42
2023/09/30 01:06:57;;;;;;;0.20;0.20;;;;;;;10.66;100.00;102377.63;5116268;28;20112;-42
2023/09/30 01:09:22;;;;;;;0.20;0.20;;;;;;;10.69;100.00;102382.97;5115129;28;20023;-44
2023/09/30 01:11:48;;;;;;;0.20;0.20;;;;;;;10.67;100.00;102381.97;5116196;28;20102;-42
2023/09/30 01:14:31;;;;;;;0.20;0.20;;;;;;;10.67;100.00;102389.72;5115755;28;20051;-41
2023/09/30 01:16:57;;;;;;;0.20;0.20;;;;;;;10.63;100.00;102381.75;5115131;28;20055;-41
2023/09/30 01:19:24;;;;;;;0.10;0.10;;;;;;;10.63;100.00;102385.22;5115564;28;20455;-42
2023/09/30 01:21:54;;;;;;;0.20;0.20;;;;;;;10.63;100.00;102386.91;5116038;28;20084;-42
2023/09/30 01:24:20;;;;;;;0.20;0.20;;;;;;;10.53;100.00;102400.97;5114654;28;20023;-42
2023/09/30 01:26:45;;;;;;;0.10;0.10;;;;;;;10.53;100.00;102417.34;5115712;28;20023;-45
2023/09/30 01:29:13;;;;;;;0.20;0.20;;;;;;;10.51;100.00;102413.78;5115566;28;20023;-42
2023/09/30 01:31:39;;;;;;;0.20;0.20;;;;;;;10.56;100.00;102418.31;5114785;28;20487;-41
2023/09/30 01:34:04;;;;;;;0.17;0.17;;;;;;;10.48;100.00;102408.47;5115859;28;20059;-43
2023/09/30 01:36:31;;;;;;;0.17;0.17;;;;;;;10.51;100.00;102412.91;5114984;28;20031;-45
2023/09/30 01:38:56;;;;;;;0.20;0.20;;;;;;;10.50;100.00;102411.13;5115649;28;20035;-41
2023/09/30 01:41:22;;;;;;;0.10;0.10;;;;;;;10.53;100.00;102414.78;5115266;28;20032;-41
2023/09/30 01:43:48;;;;;;;0.20;0.20;;;;;;;10.61;100.00;102419.44;5114580;28;20489;-42
2023/09/30 01:46:13;;;;;;;0.17;0.17;;;;;;;10.61;100.00;102402.28;5115286;28;20035;-41
2023/09/30 01:48:39;;;;;;;0.20;0.20;;;;;;;10.63;100.00;102399.81;5115521;28;20069;-42
2023/09/30 01:51:04;;;;;;;0.10;0.10;;;;;;;10.63;100.00;102392.06;5114504;28;20031;-44
2023/09/30 01:53:30;;;;;;;0.20;0.20;;;;;;;10.63;100.00;102385.22;5115204;28;20020;-43
2023/09/30 01:55:55;;;;;;;0.20;0.20;;;;;;;10.60;100.00;102386.72;5115205;28;20028;-44
2023/09/30 01:58:20;;;;;;;0.20;0.20;;;;;;;10.65;100.00;102385.28;5113755;28;20054;-42
2023/09/30 02:00:46;;;;;;;0.20;0.20;;;;;;;10.62;100.00;102392.88;5115317;28;20047;-42
2023/09/30 02:03:11;;;;;;;0.20;0.20;;;;;;;10.62;100.00;102390.28;5114885;28;20367;-40
2023/09/30 02:05:38;;;;;;;0.20;0.20;;;;;;;10.54;100.00;102376.97;5114552;28;20039;-43
2023/09/30 02:08:05;;;;;;;0.20;0.20;;;;;;;10.57;100.00;102387.44;5114804;28;20471;-42
2023/09/30 02:10:31;;;;;;;0.20;0.20;;;;;;;10.55;100.00;102389.06;5114644;28;20084;-41
2023/09/30 02:12:56;;;;;;;0.20;0.20;;;;;;;10.59;100.00;102391.00;5114037;28;20039;-45
2023/09/30 02:15:21;;;;;;;0.20;0.20;;;;;;;10.61;100.00;102399.69;5114348;28;20070;-42
2023/09/30 02:17:48;;;;;;;0.20;0.20;;;;;;;10.63;100.00;102407.53;5114666;28;20076;-46
2023/09/30 02:20:18;;;;;;;0.10;0.10;;;;;;;10.63;100.00;102410.13;5113836;28;20034;-44
2023/09/30 02:22:44;;;;;;;0.20;0.20;;;;;;;10.61;100.00;102409.13;5114652;28;20530;-45
2023/09/30 02:25:10;;;;;;;0.20;0.20;;;;;;;10.62;100.00;102401.47;5114597;28;20023;-43
2023/09/30 02:27:35;;;;;;;0.20;0.20;;;;;;;10.60;100.00;102412.50;5113362;28;20084;-41
2023/09/30 02:30:00;;;;;;;0.20;0.20;;;;;;;10.56;100.00;102408.91;5114735;28;20405;-41
2023/09/30 02:32:26;;;;;;;0.20;0.20;;;;;;;10.57;100.00;102396.88;5114415;28;20023;-46
2023/09/30 02:34:51;;;;;;;0.20;0.20;;;;;;;10.56;100.00;102390.84;5113722;28;20020;-42
2023/09/30 02:37:18;;;;;;;0.20;0.20;;;;;;;10.56;100.00;102395.09;5114073;28;20145;-41
2023/09/30 02:39:44;;;;;;;0.20;0.20;;;;;;;10.52;100.00;102397.53;5114290;28;20048;-42
2023/09/30 02:42:10;;;;;;;0.13;0.13;;;;;;;10.48;100.00;102405.00;5114270;28;20024;-44
2023/09/30 02:44:35;;;;;;;0.20;0.20;;;;;;;10.48;100.00;102398.16;5114573;28;20038;-43
2023/09/30 02:47:01;;;;;;;0.20;0.20;;;;;;;10.48;100.00;102395.59;5113584;28;20027;-42
2023/09/30 02:49:26;;;;;;;0.15;0.15;;;;;;;10.43;100.00;102399.59;5114038;28;20020;-42
2023/09/30 02:51:51;;;;;;;0.20;0.20;;;;;;;10.40;100.00;102391.69;5113757;28;20019;-43
2023/09/30 02:54:16;;;;;;;0.20;0.20;;;;;;;10.41;100.00;102387.44;5113046;28;20477;-44
2023/09/30 02:56:42;;;;;;;0.20;0.20;;;;;;;10.46;100.00;102386.00;5114004;28;20612;-43
2023/09/30 02:59:08;;;;;;;0.20;0.20;;;;;;;10.40;100.00;102394.25;5114501;28;20031;-45
2023/09/30 03:01:34;;;;;;;0.20;0.20;;;;;;;10.40;100.00;102386.53;5112988;28;20106;-42
2023/09/30 03:03:59;;;;;;;0.20;0.20;;;;;;;10.41;100.00;102385.72;5113847;28;20023;-44
2023/09/30 03:06:25;;;;;;;0.20;0.20;;;;;;;10.38;100.00;102390.72;5113437;28;20051;-47
2023/09/30 03:08:51;;;;;;;0.20;0.20;;;;;;;10.37;100.00;102394.09;5113023;28;20028;-45
2023/09/30 03:11:17;;;;;;;0.20;0.20;;;;;;;10.39;100.00;102395.06;5113631;28;20463;-46
2023/09/30 03:13:42;;;;;;;0.20;0.20;;;;;;;10.38;100.00;102398.47;5113925;28;20026;-47
2023/09/30 03:16:09;;;;;;;0.20;0.20;;;;;;;10.39;100.00;102395.06;5113219;28;20023;-46
2023/09/30 03:18:34;;;;;;;0.20;0.20;;;;;;;10.39;100.00;102402.78;5113326;28;20394;-42
2023/09/30 03:21:01;;;;;;;0.20;0.20;;;;;;;10.41;100.00;102411.50;5113630;28;20016;-45
2023/09/30 03:23:30;;;;;;;0.20;0.20;;;;;;;10.47;100.00;102395.47;5112498;28;20020;-42
2023/09/30 03:25:58;;;;;;;0.20;0.20;;;;;;;10.53;100.00;102391.56;5113312;28;20073;-41
2023/09/30 03:28:24;;;;;;;0.20;0.20;;;;;;;10.54;100.00;102379.56;5113442;28;20030;-41
2023/09/30 03:30:50;;;;;;;0.20;0.20;;;;;;;10.51;100.00;102375.13;5112845;28;20016;-43
2023/09/30 03:33:15;;;;;;;0.20;0.20;;;;;;;10.51;100.00;102369.97;5113234;28;20372;-42
2023/09/30 03:35:41;;;;;;;0.20;0.20;;;;;;;10.47;100.00;102373.19;5113600;28;20424;-45
2023/09/30 03:38:09;;;;;;;0.20;0.20;;;;;;;10.43;100.00;102378.97;5112590;28;20080;-42
2023/09/30 03:40:34;;;;;;;;;;;;;;;10.52;100.00;102386.31;5113437;28;20019;-45
2023/09/30 03:43:00;;;;;;;0.20;0.20;;;;;;;10.42;100.00;102386.59;5113525;28;19990;-44
2023/09/30 03:45:26;;;;;;;0.20;0.20;;;;;;;10.35;100.00;102383.72;5112591;28;20059;-44
2023/09/30 03:47:51;;;;;;;0.20;0.20;;;;;;;10.39;100.00;102379.59;5113213;28;20072;-44
2023/09/30 03:50:17;;;;;;;0.20;0.20;;;;;;;10.37;100.00;102383.78;5112152;28;20035;-45
2023/09/30 03:52:47;;;;;;;0.20;0.20;;;;;;;10.43;100.00;102384.13;5113179;28;20016;-44
2023/09/30 03:55:14;;;;;;;0.20;0.20;;;;;;;10.46;100.00;102389.44;5112915;28;20026;-41
2023/09/30 03:57:39;;;;;;;0.20;0.20;;;;;;;10.46;100.00;102384.28;5112392;28;20044;-44
2023/09/30 04:00:06;;;;;;;0.20;0.20;;;;;;;10.42;100.00;102377.22;5113089;28;20156;-44
2023/09/30 04:02:32;;;;;;;0.20;0.20;;;;;;;10.39;100.00;102377.00;5113051;28;20048;-43
2023/09/30 04:04:57;;;;;;;0.20;0.20;;;;;;;10.39;100.00;102387.31;5114682;28;20109;-44
2023/09/30 04:07:27;;;;;;;0.17;0.17;;;;;;;10.38;100.00;102378.72;5116915;28;20027;-45
2023/09/30 04:09:54;;;;;;;0.10;0.10;;;;;;;10.28;100.00;102393.56;5117239;28;20035;-43
2023/09/30 04:12:19;;;;;;;0.20;0.20;;;;;;;10.25;100.00;102377.91;5116477;28;20048;-42
2023/09/30 04:14:45;;;;;;;0.20;0.20;;;;;;;10.27;100.00;102386.63;5117201;28;20062;-42
2023/09/30 04:17:10;;;;;;;0.10;0.10;;;;;;;10.28;100.00;102396.16;5117124;28;20024;-42
2023/09/30 04:19:35;;;;;;;0.10;0.10;;;;;;;10.21;100.00;102390.66;5116187;28;20020;-42
2023/09/30 04:22:00;;;;;;;0.20;0.20;;;;;;;10.21;100.00;102382.00;5116990;28;20320;-44
2023/09/30 04:24:28;;;;;;;0.10;0.10;;;;;;;10.16;100.00;102379.19;5116524;28;20031;-41
2023/09/30 04:26:57;;;;;;;0.20;0.20;;;;;;;10.15;100.00;102380.00;5116290;28;20070;-45
2023/09/30 04:29:29;;;;;;;0.20;0.20;;;;;;;10.08;100.00;102385.59;5116770;28;20035;-44
2023/09/30 04:31:54;;;;;;;0.13;0.13;;;;;;;10.10;100.00;102389.16;5117004;28;20360;-44
2023/09/30 04:34:19;;;;;;;0.20;0.20;;;;;;;10.03;100.00;102384.44;5115808;28;20493;-43
2023/09/30 04:36:45;;;;;;;0.20;0.20;;;;;;;10.07;100.00;102389.00;5116774;28;20375;-43
2023/09/30 04:39:12;;;;;;;0.20;0.20;;;;;;;10.10;100.00;102391.72;5116937;28;20020;-44
2023/09/30 04:41:41;;;;;;;0.28;0.28;;;;;;;10.07;100.00;102393.22;5115743;28;20471;-43
2023/09/30 04:44:06;;;;;;;0.20;0.20;;;;;;;10.04;100.00;102388.78;5116756;28;20073;-44
2023/09/30 04:46:32;;;;;;;0.17;0.17;;;;;;;10.06;100.00;102397.50;5115411;28;20027;-42
2023/09/30 04:48:57;;;;;;;0.20;0.20;;;;;;;10.01;100.00;102407.53;5116618;28;20047;-43
2023/09/30 04:51:25;;;;;;;0.20;0.20;;;;;;;9.93;100.00;102405.31;5116150;28;20406;-42
2023/09/30 04:53:50;;;;;;;0.20;0.20;;;;;;;9.95;100.00;102398.59;5115786;28;20029;-43
2023/09/30 04:56:16;;;;;;;0.20;0.20;;;;;;;9.95;100.00;102401.16;5116020;28;20058;-41
2023/09/30 04:58:41;;;;;;;0.20;0.20;;;;;;;9.98;100.00;102404.81;5115342;28;20023;-44
2023/09/30 05:01:08;;;;;;;0.20;0.20;;;;;;;9.97;100.00;102407.28;5114517;28;20024;-44
2023/09/30 05:03:35;;;;;;;0.25;0.25;;;;;;;9.97;100.00;102402.16;5114812;28;20061;-46
2023/09/30 05:06:00;;;;;;;0.20;0.20;;;;;;;9.96;100.00;102410.66;5114847;28;20015;-43
2023/09/30 05:08:26;;;;;;;0.20;0.20;;;;;;;9.96;100.00;102410.66;5114069;28;20106;-44
2023/09/30 05:10:55;;;;;;;0.10;0.10;;;;;;;9.90;100.00;102416.34;5115066;28;20375;-43
2023/09/30 05:13:20;;;;;;;0.13;0.13;;;;;;;9.96;100.00;102419.25;5114609;28;20022;-41
2023/09/30 05:15:46;;;;;;;0.20;0.20;;;;;;;9.91;100.00;102422.38;5113699;28;20015;-43
2023/09/30 05:18:11;;;;;;;0.20;0.20;;;;;;;9.87;100.00;102429.91;5114636;28;20111;-40
2023/09/30 05:20:38;;;;;;;0.28;0.28;;;;;;;9.93;100.00;102410.47;5114771;28;20031;-42
2023/09/30 05:23:04;;;;;;;0.20;0.20;;;;;;;9.91;100.00;102419.81;5114223;28;20093;-41
2023/09/30 05:25:29;;;;;;;0.20;0.20;;;;;;;9.89;100.00;102424.88;5114480;28;20448;-42
2023/09/30 05:27:55;;;;;;;0.20;0.20;;;;;;;9.82;100.00;102417.59;5114596;28;20023;-44
2023/09/30 05:30:20;;;;;;;0.20;0.20;;;;;;;9.79;100.00;102418.31;5113461;28;20020;-41
2023/09/30 05:32:46;;;;;;;0.13;0.13;;;;;;;9.85;100.00;102422.91;5114467;28;20032;-43
2023/09/30 05:35:12;;;;;;;0.20;0.20;;;;;;;9.80;100.00;102420.09;5114052;28;20023;-43
2023/09/30 05:37:42;;;;;;;0.20;0.20;;;;;;;9.86;100.00;102424.69;5113506;28;20425;-44
2023/09/30 05:40:26;;;;;;;0.28;0.28;;;;;;;9.86;100.00;102427.25;5114424;28;20364;-46
2023/09/30 05:42:57;;;;;;;0.10;0.10;;;;;;;9.94;100.00;102438.91;5113726;28;20024;-45
2023/09/30 05:45:23;;;;;;;0.20;0.20;;;;;;;9.95;100.00;102434.63;5114123;28;20047;-43
2023/09/30 05:47:49;;;;;;;0.20;0.20;;;;;;;9.95;100.00;102440.66;5114187;28;20051;-41
2023/09/30 05:50:16;;;;;;;0.20;0.20;;;;;;;9.98;100.00;102435.72;5113362;28;20051;-45
2023/09/30 05:52:43;;;;;;;0.20;0.20;;;;;;;10.02;100.00;102441.94;5114481;28;20024;-45
2023/09/30 05:55:08;;;;;;;0.20;0.20;;;;;;;10.10;100.00;102438.09;5114271;28;20019;-44
2023/09/30 05:57:35;;;;;;;0.20;0.20;;;;;;;10.15;100.00;102438.38;5076758;28;1042181;-43
2023/09/30 06:00:01;;;;;;;0.30;0.30;;;;;;;10.19;100.00;102440.31;5114981;28;20077;-45
2023/09/30 06:02:26;;;;;;;0.20;0.20;;;;;;;10.24;100.00;102445.72;5114940;28;20031;-43
2023/09/30 06:04:53;;;;;;;0.20;0.20;;;;;;;10.25;100.00;102442.34;5114203;28;20047;-45
2023/09/30 06:07:19;;;;;;;0.10;0.10;;;;;;;10.26;100.00;102441.53;5114555;28;20031;-45
2023/09/30 06:09:47;;;;;;;0.20;0.20;;;;;;;10.26;100.00;102438.97;5114976;28;20434;-44
2023/09/30 06:12:12;;;;;;;0.20;0.20;;;;;;;10.28;100.00;102435.69;5113741;28;20370;-43
2023/09/30 06:14:37;;;;;;;0.20;0.20;;;;;;;10.25;100.00;102430.38;5114821;28;20028;-44
2023/09/30 06:17:02;;;;;;;0.20;0.20;;;;;;;10.24;100.00;102428.56;5114925;28;20110;-44
2023/09/30 06:19:28;;;;;;;0.20;0.20;;;;;;;10.25;100.00;102434.59;5113710;28;20068;-43
2023/09/30 06:21:54;;;;;;;0.20;0.20;;;;;;;10.24;100.00;102440.56;5114801;28;20394;-41
2023/09/30 06:24:22;;;;;;;0.20;0.20;;;;;;;10.26;100.00;102436.38;5114417;28;20035;-42
2023/09/30 06:26:48;;;;;;;0.20;0.20;;;;;;;10.24;100.00;102437.97;5112823;28;20486;-45
2023/09/30 06:29:14;;;;;;;0.20;0.20;;;;;;;10.28;100.00;102434.81;5114103;28;20482;-44
2023/09/30 06:31:39;;;;;;;0.20;0.20;;;;;;;10.30;100.00;102430.59;5114676;28;20039;-43
2023/09/30 06:34:06;;;;;;;0.30;0.30;;;;;;;10.31;100.00;102432.38;5113772;28;20031;-44
2023/09/30 06:36:32;;;;;;;0.20;0.20;;;;;;;10.36;100.00;102438.72;5114228;28;20046;-45
2023/09/30 06:38:58;;;;;;;0.20;0.20;;;;;;;10.38;100.00;102439.69;5113536;28;20023;-42
2023/09/30 06:41:24;;;;;;;0.20;0.20;;;;;;;10.46;100.00;102446.16;5114039;28;20027;-41
2023/09/30 06:43:49;;;;;;;0.20;0.20;;;;;;;10.49;100.00;102440.28;5114359;28;20032;-46
2023/09/30 06:46:15;;;;;;;0.20;0.20;;;;;;;10.54;100.00;102437.16;5113004;28;20085;-41
2023/09/30 06:48:41;;;;;;;0.25;0.25;;;;;;;10.59;100.00;102437.41;5114613;28;20024;-42
2023/09/30 06:51:06;;;;;;;0.20;0.20;;;;;;;10.66;100.00;102446.38;5114095;28;20097;-43
2023/09/30 06:53:31;;;;;;;0.20;0.20;;;;;;;10.75;100.00;102454.59;5112906;28;20102;-43
2023/09/30 06:55:57;;;;;;;0.20;0.20;;;;;;;10.84;100.00;102459.38;5114135;28;20066;-41
2023/09/30 06:58:22;;;;;;;0.20;0.20;;;;;;;10.93;100.00;102474.47;5113427;28;20044;-43
2023/09/30 07:00:50;;;;;;;0.20;0.20;;;;;;;11.02;100.00;102480.13;5113309;28;20035;-44
2023/09/30 07:03:16;;;;;;;;;;;;;;;11.09;100.00;102487.41;5114171;28;20019;-45
2023/09/30 07:05:42;;;;;;;0.25;0.25;;;;;;;11.18;100.00;102495.63;5113962;28;20048;-41
2023/09/30 07:08:08;;;;;;;0.20;0.20;;;;;;;11.27;100.00;102494.34;5112999;28;20024;-44
2023/09/30 07:10:33;;;;;;;0.10;0.10;;;;;;;11.37;100.00;102496.59;5113444;28;20389;-42
2023/09/30 07:12:58;;;;;;;0.10;0.10;;;;;;;11.48;100.00;102495.47;5113630;28;20039;-43
2023/09/30 07:15:24;;;;;;;0.10;0.10;;;;;;;11.57;100.00;102496.75;5112783;28;20016;-42
2023/09/30 07:17:49;;;;;;;0.10;0.10;;;;;;;11.71;100.00;102488.06;5113743;28;20584;-43
2023/09/30 07:20:15;;;;;;;0.20;0.20;;;;;;;11.79;100.00;102491.91;5113481;28;20019;-45
2023/09/30 07:22:41;;;;;;;0.20;0.20;;;;;;;11.88;100.00;102485.41;5112769;28;20031;-45
2023/09/30 07:25:08;;;;;;;0.20;0.20;;;;;;;11.98;100.00;102490.28;5113469;28;20066;-42
2023/09/30 07:27:33;;;;;;;0.20;0.20;;;;;;;12.04;100.00;102508.66;5113221;28;20032;-46
2023/09/30 07:29:59;;;;;;;0.17;0.17;;;;;;;12.15;100.00;102520.44;5112968;28;20015;-45
2023/09/30 07:32:25;;;;;;;0.10;0.10;;;;;;;12.32;100.00;102533.31;5113389;28;20051;-43
2023/09/30 07:34:51;;;;;;;0.20;0.20;;;;;;;12.44;100.00;102541.66;5113590;28;20383;-45
2023/09/30 07:37:20;;;;;;;0.10;0.10;;;;;;;12.57;100.00;102540.56;5112306;28;20023;-42
2023/09/30 07:39:45;;;;;;;0.20;0.20;;;;;;;12.64;100.00;102554.69;5113242;28;20023;-41
2023/09/30 07:42:11;;;;;;;0.10;0.10;;;;;;;12.66;100.00;102550.47;5112448;28;20523;-46
2023/09/30 07:44:37;;;;;;;0.10;0.10;;;;;;;12.75;100.00;102556.09;5113418;28;20022;-44
2023/09/30 07:47:03;;;;;;;0.20;0.20;;;;;;;12.91;100.00;102546.47;5113482;28;20459;-41
2023/09/30 07:49:29;;;;;;;0.20;0.20;;;;;;;13.11;100.00;102545.72;5112315;28;20102;-46
2023/09/30 07:51:55;;;;;;;0.10;0.10;;;;;;;13.28;100.00;102533.53;5113341;28;20027;-43
2023/09/30 07:54:20;;;;;;;0.20;0.20;;;;;;;13.50;100.00;102539.72;5112905;28;20026;-41
2023/09/30 07:56:45;;;;;;;0.10;0.10;;;;;;;13.52;100.00;102543.28;5112019;28;20490;-44
2023/09/30 07:59:11;;;;;;;0.20;0.20;;;;;;;13.58;100.00;102542.66;5113243;28;20020;-43
2023/09/30 08:01:37;;;;;;;0.10;0.10;;;;;;;13.60;100.00;102533.25;5113000;28;20030;-43
2023/09/30 08:04:02;;;;;;;0.10;0.10;;;;;;;13.73;100.00;102532.97;5112281;28;20051;-45
2023/09/30 08:06:28;;;;;;;0.20;0.20;;;;;;;13.81;100.00;102535.88;5112924;28;20031;-42
2023/09/30 08:08:55;;;;;;;0.10;0.10;;;;;;;13.96;100.00;102535.69;5112987;28;20091;-46
2023/09/30 08:11:20;;;;;;;0.10;0.10;;;;;;;14.02;100.00;102528.16;5111903;28;20103;-45
2023/09/30 08:13:46;;;;;;;0.10;0.10;;;;;;;13.97;100.00;102522.78;5113215;28;20434;-44
2023/09/30 08:16:11;;;;;;;0.20;0.20;;;;;;;14.03;100.00;102532.50;5112829;28;20032;-43
2023/09/30 08:18:37;;;;;;;0.10;0.10;;;;;;;14.10;100.00;102529.38;5112328;28;20024;-42
2023/09/30 08:21:02;;;;;;;0.20;0.20;;;;;;;14.15;100.00;102530.44;5113197;28;20385;-43
2023/09/30 08:23:27;;;;;;;0.20;0.20;;;;;;;14.30;100.00;102526.72;5112681;28;20407;-42
2023/09/30 08:25:54;;;;;;;0.10;0.10;;;;;;;14.35;100.00;102514.81;5112072;28;20395;-42
2023/09/30 08:28:20;;;;;;;0.13;0.13;;;;;;;14.44;100.00;102519.50;5112589;28;20037;-47
2023/09/30 08:30:46;;;;;;;0.10;0.10;;;;;;;14.51;100.00;102515.44;5112760;28;20020;-44
2023/09/30 08:33:11;;;;;;;0.10;0.10;;;;;;;14.58;100.00;102512.28;5111672;28;20391;-41
2023/09/30 08:35:38;;;;;;;0.10;0.10;;;;;;;14.69;100.00;102521.38;5112732;28;20480;-46
2023/09/30 08:38:03;;;;;;;0.10;0.10;;;;;;;14.72;100.00;102518.91;5113011;28;20027;-43
2023/09/30 08:40:29;;;;;;;0.10;0.10;;;;;;;14.79;100.00;102513.13;5111558;28;20030;-45
2023/09/30 08:42:54;;;;;;;0.10;0.10;;;;;;;14.96;100.00;102505.09;5112877;28;20052;-45
2023/09/30 08:45:20;;;;;;;0.10;0.10;;;;;;;15.08;100.00;102510.78;5112651;28;20020;-45
2023/09/30 08:47:46;;;;;;;0.10;0.10;;;;;;;15.20;100.00;102514.66;5111731;28;20387;-44
2023/09/30 08:50:13;;;;;;;0.10;0.10;;;;;;;15.27;100.00;102511.44;5113383;28;20027;-42
2023/09/30 08:52:39;;;;;;;;;;;;;;;15.39;100.00;102506.72;5115957;28;20421;-43
2023/09/30 08:55:09;;;;;;;0.10;0.10;;;;;;;15.35;100.00;102504.84;5116258;28;19912;-45
2023/09/30 08:57:40;;;;;;;0.10;0.10;;;;;;;15.32;100.00;102509.91;5115847;28;20039;-45
2023/09/30 09:00:07;;;;;;;0.15;0.15;;;;;;;15.43;100.00;102519.00;5115499;28;20073;-45
2023/09/30 09:02:36;;;;;;;0.10;0.10;;;;;;;15.55;100.00;102512.47;5115917;28;20459;-47
2023/09/30 09:05:02;;;;;;;0.10;0.10;;;;;;;15.64;100.00;102507.59;5116196;28;20020;-42
2023/09/30 09:07:27;;;;;;;0.10;0.10;;;;;;;15.75;100.00;102521.84;5114926;28;20032;-46
2023/09/30 09:10:05;;;;;;;0.10;0.10;;;;;;;15.89;100.00;102529.28;5116075;28;20527;-45
2023/09/30 09:12:33;;;;;;;0.10;0.10;;;;;;;15.87;100.00;102536.13;5115886;28;20108;-42
2023/09/30 09:14:58;;;;;;;;;;;;;;;16.01;100.00;102542.72;5115667;28;20031;-44
2023/09/30 09:17:39;;;;;;;0.10;0.10;;;;;;;16.13;100.00;102545.72;5115632;28;19912;-42
2023/09/30 09:20:05;;;;;;;0.10;0.10;;;;;;;16.25;100.00;102544.34;5115911;28;20447;-46
2023/09/30 09:22:38;;;;;;;0.10;0.10;;;;;;;16.48;100.00;102544.25;5114680;28;20526;-42
2023/09/30 09:25:04;;;;;;;0.10;0.10;;;;;;;16.63;100.00;102553.41;5115921;28;20416;-46
2023/09/30 09:27:34;;;;;;;0.05;0.05;;;;;;;16.67;100.00;102559.63;5115601;28;20527;-45
2023/09/30 09:30:17;;;;;;;0.10;0.10;;;;;;;16.96;100.00;102562.25;5114915;28;20471;-42
2023/09/30 09:32:55;;;;;;;0.10;0.10;;;;;;;17.44;100.00;102575.00;5115713;28;20016;-46
2023/09/30 09:35:21;;;;;;;0.03;0.03;;;;;;;17.56;100.00;102578.81;5114709;28;20039;-44
2023/09/30 09:38:04;;;;;;;0.10;0.10;;;;;;;17.89;100.00;102585.78;5115768;28;20051;-43
2023/09/30 09:40:38;;;;;;;0.10;0.10;;;;;;;18.04;100.00;102583.59;5115280;28;20285;-47
2023/09/30 09:43:05;;;;;;;0.10;0.10;;;;;;;18.57;100.00;102582.31;5114594;28;20022;-45
2023/09/30 09:45:32;;;;;;;0.10;0.10;;;;;;;18.78;100.00;102586.28;5115315;28;20032;-46
2023/09/30 09:47:58;;;;;;;0.10;0.10;;;;;;;19.30;100.00;102579.66;5115365;28;20038;-44
2023/09/30 09:50:24;;;;;;;0.08;0.08;;;;;;;19.51;100.00;102580.91;5114217;28;20020;-42
2023/09/30 09:52:55;;;;;;;0.10;0.10;;;;;;;19.57;96.42;102581.94;5115384;28;20031;-46
2023/09/30 09:55:22;;;;;;;0.00;0.00;;;;;;;19.56;93.35;102579.28;5115007;28;20486;-45
2023/09/30 09:57:49;;;;;;;0.00;0.00;;;;;;;19.64;95.32;102587.28;5114244;28;20398;-47
2023/09/30 10:00:23;;;;;;;0.00;0.00;;;;;;;19.92;93.91;102593.06;5114818;28;20046;-43
2023/09/30 10:02:50;;;;;;;0.00;0.00;;;;;;;20.13;90.45;102583.00;5113739;28;20028;-42
2023/09/30 10:05:16;;;;;;;0.00;0.00;;;;;;;20.27;86.89;102585.88;5114642;28;20023;-47
2023/09/30 10:07:53;;;;;;;0.00;0.00;;;;;;;20.17;86.95;102594.41;5114931;28;20038;-46
2023/09/30 10:10:21;;;;;;;0.00;0.00;;;;;;;20.22;83.48;102600.63;5113875;28;20032;-46
2023/09/30 10:12:46;;;;;;;0.00;0.00;;;;;;;20.40;83.34;102606.16;5115046;28;20024;-44
2023/09/30 10:15:24;;;;;;;0.00;0.00;;;;;;;20.38;85.64;102605.25;5114708;28;20501;-42
2023/09/30 10:18:03;;;;;;;0.00;0.00;;;;;;;20.49;85.16;102612.38;5114105;28;20024;-43
2023/09/30 10:20:33;;;;;;;0.00;0.00;;;;;;;20.43;81.76;102607.06;5114432;28;20455;-44
2023/09/30 10:23:16;;;;;;;0.00;0.00;;;;;;;20.90;86.62;102609.56;5115081;28;20035;-46
2023/09/30 10:25:47;;;;;;;0.00;0.00;;;;;;;21.12;81.25;102602.03;5113981;28;20028;-44
2023/09/30 10:28:35;;;;;;;0.00;0.00;;;;;;;21.25;79.47;102592.56;5114318;28;20027;-45
2023/09/30 10:31:30;;;;;;;0.00;0.00;;;;;;;21.63;84.50;102587.84;5113649;28;20032;-47
2023/09/30 10:33:58;;;;;;;0.00;0.00;;;;;;;21.64;74.81;102584.34;5092682;28;20056;-45
2023/09/30 10:36:32;;;;;;;0.00;0.00;;;;;;;21.61;73.99;102568.56;5114121;28;20076;-46
2023/09/30 10:38:58;;;;;;;0.00;0.00;;;;;;;21.72;72.57;102571.31;5113655;28;20053;-42
2023/09/30 10:41:38;;;;;;;0.00;0.00;;;;;;;21.96;75.08;102560.19;5113912;28;20382;-47
2023/09/30 10:44:22;;;;;;;0.00;0.00;;;;;;;22.03;74.52;102567.25;5114528;28;20037;-47
2023/09/30 10:46:48;;;;;;;0.00;0.00;;;;;;;21.83;67.67;102556.56;5113614;28;20035;-45
2023/09/30 10:49:22;;;;;;;0.00;0.00;;;;;;;21.78;72.53;102557.38;5113989;28;20019;-44
2023/09/30 10:51:52;;;;;;;0.00;0.00;;;;;;;21.93;68.87;102557.50;5114159;28;20066;-46
2023/09/30 10:54:31;;;;;;;0.00;0.00;;;;;;;22.16;71.94;102556.84;5113207;28;20055;-47
2023/09/30 10:57:01;;;;;;;0.00;0.00;;;;;;;22.02;68.01;102554.97;5113966;28;20121;-42
2023/09/30 10:59:34;;;;;;;0.00;0.00;;;;;;;22.02;68.85;102554.97;5113064;28;20019;-45
2023/09/30 11:02:00;;;;;;;0.00;0.00;;;;;;;22.10;70.38;102541.91;5114109;28;20031;-46
2023/09/30 11:04:28;;;;;;;0.03;0.03;;;;;;;22.31;62.34;102538.59;5113503;28;20027;-45
2023/09/30 11:06:53;;;;;;;0.00;0.00;;;;;;;22.44;62.23;102539.59;5113116;28;20153;-42
2023/09/30 11:09:21;;;;;;;0.00;0.00;;;;;;;22.53;60.46;102533.53;5113659;28;20049;-43
2023/09/30 11:11:49;;;;;;;0.00;0.00;;;;;;;22.53;61.12;102544.03;5113772;28;20417;-46
2023/09/30 11:14:27;;;;;;;0.00;0.00;;;;;;;22.67;66.46;102542.38;5112385;28;20020;-46
2023/09/30 11:16:54;;;;;;;0.00;0.00;;;;;;;22.56;62.87;102541.44;5113643;28;20031;-43
2023/09/30 11:19:21;;;;;;;0.00;0.00;;;;;;;22.76;62.24;102548.53;5113621;28;20023;-44